Latest Weather Observations for Glen Innes Airport

IDN60801

Issued at 5:02 am EDT Tuesday 28 February 2017 (issued every 30 minutes, with the page automatically refreshed every 10 minutes)

About weather observations | Map of weather stations | Latest weather observations for NSW | Other Formats
Station Details ID: 056243 Name: GLEN INNES AIRPORT AWS Lat: -29.68 Lon: 151.69 Height: 1044.3 m
Data from the previous 72 hours. | See also: Recent months at Glen Innes Airport
Date/Time
EDT
Temp
°C
App
Temp
°C
Dew
Point
°C
Rel
Hum
%
Delta-T
°C
Wind Press
QNH
hPa
Press
MSL
hPa
Rain since
9am
mm
Dir  Spd
km/h
Gust
km/h
Spd
kts
Gust
kts
28/04:44am 13.8 10.7 12.2 90 0.9 ESE 20 28 11 15 1020.9 1015.4 0.2
28/04:30am 13.9 10.4 12.1 89 1.0 ESE 22 30 12 16 1020.9 1015.4 0.2
28/04:00am 14.1 11.1 12.1 88 1.1 ESE 19 26 10 14 1021.2 1015.6 0.2
28/03:51am 14.0 11.0 12.0 88 1.1 ESE 19 24 10 13 1021.2 1015.6 0.2
28/03:30am 14.0 11.4 12.0 88 1.1 ESE 17 22 9 12 1021.3 1015.7 0.2
28/03:29am 14.1 11.5 12.1 88 1.1 ESE 17 24 9 13 1021.4 1015.9 0.2
28/03:00am 14.0 10.9 12.2 89 1.0 ESE 20 28 11 15 1021.5 1016.0 0.2
28/02:55am 13.9 10.8 12.1 89 1.0 ESE 20 28 11 15 1021.5 1016.0 0.2
28/02:30am 13.8 10.6 12.0 89 1.0 ESE 20 26 11 14 1021.7 1016.2 0.2
28/02:00am 13.8 10.6 12.0 89 1.0 ESE 20 28 11 15 1021.7 1016.2 0.2
28/01:30am 13.9 10.0 12.1 89 1.0 E 24 30 13 16 1022.3 1016.8 0.2
28/01:00am 14.1 10.5 12.0 87 1.2 ESE 22 32 12 17 1022.3 1016.8 0.2
28/12:40am 14.2 10.3 12.1 87 1.2 ESE 24 30 13 16 1022.3 1016.8 0.2
28/12:30am 14.3 10.4 12.0 86 1.3 ESE 24 32 13 17 1022.3 1016.8 0.2
28/12:18am 14.2 10.7 12.2 88 1.1 ESE 22 30 12 16 1022.4 1016.9 0.2
28/12:00am 14.2 10.7 12.1 87 1.2 ESE 22 30 12 16 1022.4 1016.9 0.2
 
Date/Time
EDT
Temp
°C
App
Temp
°C
Dew
Point
°C
Rel
Hum
%
Delta-T
°C
Wind Press
QNH
hPa
Press
MSL
hPa
Rain since
9am
mm
Dir  Spd
km/h
Gust
km/h
Spd
kts
Gust
kts
27/11:32pm 14.2 10.7 12.2 88 1.1 ESE 22 32 12 17 1022.4 1016.9 0.2
27/11:30pm 14.2 10.7 12.2 88 1.1 ESE 22 32 12 17 1022.5 1017.0 0.2
27/11:00pm 14.1 9.8 12.1 88 1.1 ESE 26 33 14 18 1022.8 1017.3 0.2
27/10:30pm 13.8 10.3 12.2 90 0.9 ESE 22 28 12 15 1023.1 1017.7 0.2
27/10:00pm 13.7 10.6 12.3 91 0.8 E 20 28 11 15 1023.5 1018.0 0.2
27/09:30pm 14.0 10.4 11.9 87 1.2 E 22 30 12 16 1023.4 1017.9 0.2
27/09:00pm 13.8 11.4 11.3 85 1.4 ESE 15 20 8 11 1022.9 1017.4 0.2
27/08:30pm 14.7 11.6 11.7 82 1.7 ESE 19 24 10 13 1022.8 1017.3 0.2
27/08:00pm 15.1 11.8 11.7 80 1.9 ESE 20 28 11 15 1022.6 1017.1 0.2
27/07:30pm 15.2 12.1 11.6 79 2.0 ESE 19 24 10 13 1022.3 1016.8 0.2
27/07:00pm 15.9 12.2 11.5 75 2.5 ESE 22 28 12 15 1022.2 1016.6 0.2
27/06:30pm 16.3 12.9 11.2 72 2.9 SE 20 28 11 15 1021.9 1016.4 0.2
27/06:00pm 16.5 12.6 12.1 75 2.5 SE 24 33 13 18 1021.9 1016.4 0.2
27/05:30pm 17.7 13.3 11.7 68 3.5 ESE 26 35 14 19 1021.8 1016.3 0.2
27/05:00pm 17.2 11.8 10.8 66 3.6 SE 30 41 16 22 1021.8 1016.3 0.2
27/04:30pm 17.4 13.2 11.0 66 3.6 ESE 24 33 13 18 1021.8 1016.3 0.2
27/04:00pm 18.2 12.8 10.8 62 4.2 E 30 37 16 20 1021.7 1016.2 0.2
27/03:30pm 19.5 14.6 11.3 59 4.7 E 28 37 15 20 1021.6 1016.1 0.2
27/03:00pm 19.2 15.4 12.5 65 3.9 E 24 32 13 17 1022.0 1016.5 0.2
27/02:30pm 19.6 15.3 13.1 66 3.9 E 28 39 15 21 1022.3 1016.8 0.2
27/02:00pm 17.2 13.1 13.7 80 2.1 E 28 35 15 19 1022.9 1017.4 0.2
27/01:30pm 17.2 11.5 11.2 68 3.4 E 32 44 17 24 1023.1 1017.7 0.0
27/01:00pm 20.1 15.9 12.3 61 4.6 E 26 35 14 19 1022.8 1017.3 0.0
27/12:30pm 20.0 17.2 13.2 65 4.1 E 20 30 11 16 1022.9 1017.4 0.0
27/12:00pm 18.9 14.1 11.7 63 4.2 E 28 39 15 21 1023.4 1017.9 0.0
27/11:30am 18.8 13.7 11.9 64 4.0 E 30 43 16 23 1023.5 1018.0 0.0
27/11:00am 18.3 13.5 11.8 66 3.7 E 28 39 15 21 1023.5 1018.0 0.0
27/10:30am 18.3 13.7 10.9 62 4.2 E 26 37 14 20 1023.5 1018.0 0.0
27/10:00am 17.7 13.6 11.5 67 3.5 ESE 24 32 13 17 1023.3 1017.8 0.0
27/09:30am 17.5 13.2 12.0 70 3.2 ESE 26 35 14 19 1023.3 1017.8 0.0
27/09:00am 16.4 12.3 12.8 79 2.1 SE 26 35 14 19 1022.9 1017.4 0.4
27/08:30am 15.1 11.6 12.1 82 1.7 ESE 22 30 12 16 1022.8 1017.3 0.4
27/08:00am 13.1 10.3 11.2 88 1.1 SE 17 20 9 11 1022.6 1017.1 0.4
27/07:30am 11.6 8.4 10.0 90 0.9 ESE 17 19 9 10 1022.8 1017.3 0.4
27/07:00am 12.0 8.3 10.1 88 1.0 SE 20 26 11 14 1022.3 1016.8 0.4
27/06:30am 11.4 7.8 9.8 90 0.9 SE 19 24 10 13 1021.7 1016.2 0.2
27/06:00am 10.8 7.4 9.2 90 0.8 ESE 17 20 9 11 1021.6 1016.1 0.2
27/05:30am 10.6 8.0 9.2 91 0.7 ESE 13 19 7 10 1021.5 1016.0 0.2
27/05:00am 10.8 8.6 9.2 90 0.8 ESE 11 15 6 8 1021.3 1015.7 0.2
27/04:30am 11.5 8.9 9.2 86 1.2 SE 13 20 7 11 1020.8 1015.3 0.2
27/04:00am 10.9 7.2 9.3 90 0.8 ESE 19 20 10 11 1020.8 1015.3 0.2
27/03:30am 11.3 8.0 9.4 88 1.0 SE 17 20 9 11 1021.3 1015.7 0.2
27/03:00am 11.0 7.6 9.3 89 0.9 ESE 17 20 9 11 1021.7 1016.2 0.2
27/02:30am 11.6 8.0 9.7 88 1.0 ESE 19 20 10 11 1022.0 1016.5 0.2
27/02:00am 12.0 8.4 9.9 87 1.1 SE 19 22 10 12 1022.4 1016.9 0.2
27/01:30am 12.1 9.0 10.3 89 1.0 ESE 17 20 9 11 1022.5 1017.0 0.2
27/01:00am 12.5 8.9 10.6 88 1.0 ESE 20 24 11 13 1022.5 1017.0 0.2
27/12:30am 12.9 9.4 11.0 88 1.1 ESE 20 28 11 15 1022.4 1016.9 0.2
27/12:00am 13.0 9.8 11.2 89 1.0 ESE 19 24 10 13 1022.5 1017.0 0.2
 
Date/Time
EDT
Temp
°C
App
Temp
°C
Dew
Point
°C
Rel
Hum
%
Delta-T
°C
Wind Press
QNH
hPa
Press
MSL
hPa
Rain since
9am
mm
Dir  Spd
km/h
Gust
km/h
Spd
kts
Gust
kts
26/11:30pm 13.4 10.1 11.5 88 1.1 ESE 20 26 11 14 1022.5 1017.0 0.2
26/11:00pm 13.6 10.4 12.0 90 0.9 ESE 20 26 11 14 1022.5 1017.0 0.2
26/10:30pm 13.5 9.6 12.1 91 0.8 ESE 24 26 13 14 1022.4 1016.9 0.2
26/10:00pm 13.8 9.9 12.2 90 0.9 ESE 24 30 13 16 1022.5 1017.0 0.2
26/09:30pm 14.0 11.4 12.0 88 1.1 ESE 17 22 9 12 1022.7 1017.2 0.2
26/09:00pm 14.4 11.5 12.3 87 1.2 ESE 19 24 10 13 1022.4 1016.9 0.2
26/08:30pm 15.0 11.2 12.5 85 1.4 E 24 30 13 16 1021.8 1016.3 0.2
26/08:00pm 15.2 12.3 12.3 83 1.7 E 19 26 10 14 1021.8 1016.3 0.2
26/07:30pm 16.0 12.9 12.2 78 2.2 E 20 30 11 16 1021.4 1015.9 0.2
26/07:00pm 16.9 12.8 11.4 70 3.1 E 24 33 13 18 1021.5 1016.0 0.2
26/06:30pm 18.3 14.6 12.7 70 3.3 E 24 32 13 17 1021.3 1015.7 0.2
26/06:00pm 18.7 14.8 12.2 66 3.8 E 24 32 13 17 1020.8 1015.3 0.2
26/05:30pm 19.1 16.1 12.6 66 3.8 E 20 26 11 14 1020.7 1015.2 0.2
26/05:00pm 19.3 15.5 12.3 64 4.1 E 24 32 13 17 1020.6 1015.1 0.2
26/04:30pm 19.6 15.6 11.9 61 4.5 E 24 32 13 17 1020.3 1014.7 0.2
26/04:00pm 19.7 14.0 11.2 58 4.9 ESE 32 39 17 21 1020.2 1014.6 0.2
26/03:30pm 20.7 16.6 13.9 65 4.1 ESE 28 37 15 20 1020.5 1015.0 0.2
26/03:00pm 18.2 14.8 12.4 69 3.4 ESE 22 30 12 16 1020.6 1015.1 0.2
26/02:30pm 20.3 14.8 13.7 66 4.0 ESE 35 48 19 26 1021.3 1015.7 0.0
26/02:11pm 21.3 16.6 10.5 50 6.2 E 26 46 14 25 1021.0 1015.5 0.0
26/02:00pm 23.4 20.2 13.0 52 6.3 E 22 37 12 20 1020.8 1015.3 0.0
26/01:30pm 23.1 20.4 13.6 55 5.8 E 20 30 11 16 1021.0 1015.5 0.0
26/01:00pm 22.2 19.8 14.3 61 4.8 ESE 20 33 11 18 1021.5 1016.0 0.0
26/12:30pm 21.9 18.7 13.0 57 5.3 E 22 33 12 18 1021.6 1016.1 0.0
26/12:00pm 21.9 17.8 12.7 56 5.5 E 26 37 14 20 1022.0 1016.5 0.0
26/11:30am 21.1 16.7 12.8 59 4.9 E 28 37 15 20 1022.0 1016.5 0.0
26/11:00am 20.4 16.8 12.9 62 4.5 ESE 24 35 13 19 1022.3 1016.8 0.0
26/10:30am 19.8 15.9 13.3 66 3.9 ESE 26 33 14 18 1022.0 1016.5 0.0
26/10:00am 19.9 15.3 13.4 66 3.9 ESE 30 39 16 21 1021.9 1016.4 0.0
26/09:30am 18.1 12.2 12.3 69 3.4 ESE 35 44 19 24 1021.6 1016.1 0.0
26/09:00am 17.5 12.7 12.8 74 2.8 ESE 30 39 16 21 1021.3 1015.7 5.8
26/08:40am 17.2 12.7 12.5 74 2.7 ESE 28 39 15 21 1021.0 1015.5 5.8
26/08:30am 17.1 12.3 12.8 76 2.5 ESE 30 39 16 21 1021.0 1015.5 5.8
26/08:03am 15.9 12.8 13.4 85 1.5 ESE 22 32 12 17 1020.8 1015.3 5.8
26/08:00am 15.8 13.1 13.5 86 1.4 ESE 20 30 11 16 1020.8 1015.3 5.8
26/07:35am 14.8 12.4 12.7 87 1.2 ESE 17 24 9 13 1020.4 1014.8 5.8
26/07:30am 14.9 12.0 12.8 87 1.2 ESE 20 28 11 15 1020.3 1014.7 5.8
26/07:00am 15.3 12.1 13.0 86 1.3 ESE 22 33 12 18 1019.9 1014.4 5.8
26/06:30am 15.5 12.8 13.0 85 1.5 SE 19 26 10 14 1019.6 1014.1 5.8
26/06:00am 15.4 12.2 13.2 87 1.3 ESE 22 30 12 16 1019.2 1013.6 5.8
26/05:30am 15.4 13.3 13.6 89 1.1 ESE 17 24 9 13 1019.1 1013.5 5.8
26/05:00am 15.1 12.9 13.3 89 1.1 ESE 17 24 9 13 1018.7 1013.1 5.8
26/04:57am 15.1 12.6 13.5 90 0.9 ESE 19 26 10 14 1018.7 1013.1 5.8
26/04:30am 15.2 12.5 13.4 89 1.1 ESE 20 26 11 14 1018.8 1013.3 5.8
26/04:04am 15.5 13.0 13.5 88 1.2 ESE 19 24 10 13 1019.1 1013.5 5.8
26/04:00am 15.5 12.8 13.5 88 1.2 ESE 20 28 11 15 1019.2 1013.6 5.8
26/03:30am 15.7 13.3 13.7 88 1.2 ESE 19 30 10 16 1019.4 1013.8 5.8
26/03:00am 15.5 12.8 13.5 88 1.2 ESE 20 28 11 15 1019.5 1013.9 5.8
26/02:30am 15.3 13.1 13.3 88 1.2 ESE 17 24 9 13 1019.6 1014.1 5.8
26/02:03am 15.1 12.9 13.3 89 1.1 ESE 17 26 9 14 1020.2 1014.6 5.8
26/02:00am 15.1 12.9 13.3 89 1.1 ESE 17 26 9 14 1020.0 1014.5 5.8
26/01:30am 15.0 12.2 13.2 89 1.1 ESE 20 26 11 14 1020.2 1014.6 5.8
26/01:00am 15.2 12.6 13.1 87 1.2 ESE 19 24 10 13 1020.5 1015.0 5.8
26/12:30am 15.6 13.1 13.4 87 1.3 E 19 26 10 14 1021.2 1015.6 5.8
26/12:27am 15.6 13.1 13.4 87 1.3 E 19 24 10 13 1021.2 1015.6 5.8
26/12:00am 16.2 12.4 13.7 85 1.5 E 26 33 14 18 1021.2 1015.6 5.8
 
Date/Time
EDT
Temp
°C
App
Temp
°C
Dew
Point
°C
Rel
Hum
%
Delta-T
°C
Wind Press
QNH
hPa
Press
MSL
hPa
Rain since
9am
mm
Dir  Spd
km/h
Gust
km/h
Spd
kts
Gust
kts
25/11:32pm 16.7 14.2 14.0 84 1.6 E 20 28 11 15 1021.6 1016.1 5.8
25/11:30pm 16.7 14.2 14.0 84 1.6 E 20 28 11 15 1021.6 1016.1 5.8
25/11:00pm 16.8 14.6 14.3 85 1.5 E 19 24 10 13 1021.6 1016.1 5.8
25/10:30pm 16.9 13.0 14.4 85 1.5 E 28 37 15 20 1021.3 1015.7 5.8
25/10:00pm 17.2 13.7 14.5 84 1.6 E 26 33 14 18 1021.0 1015.5 5.8
25/09:30pm 17.4 15.7 14.7 84 1.6 ESE 17 26 9 14 1020.9 1015.4 5.8
25/09:00pm 17.6 15.1 14.1 80 2.1 E 20 26 11 14 1020.6 1015.1 5.8
25/08:30pm 17.4 15.9 13.1 76 2.5 E 13 20 7 11 1020.5 1015.0 5.8
25/08:00pm 17.6 17.4 13.5 77 2.4 ENE 7 11 4 6 1019.7 1014.2 5.8
25/07:30pm 17.9 16.6 13.6 76 2.6 E 13 15 7 8 1019.7 1014.2 5.8
25/07:00pm 18.7 17.1 13.8 73 2.9 E 15 19 8 10 1019.3 1013.7 5.6
25/06:30pm 19.0 15.5 13.4 70 3.3 E 24 32 13 17 1018.8 1013.3 5.6
25/06:00pm 18.6 16.0 13.7 73 2.9 E 20 28 11 15 1018.7 1013.1 5.6
25/05:30pm 18.8 16.4 14.3 75 2.7 ESE 20 35 11 19 1018.6 1013.0 5.6
25/05:00pm 17.7 16.8 13.6 77 2.4 NE 11 24 6 13 1018.8 1013.3 5.6
25/04:42pm 18.0 17.1 13.7 76 2.6 NNW 11 17 6 9 1019.4 1013.8 5.0
25/04:30pm 18.3 15.6 13.4 73 2.9 ESE 20 32 11 17 1018.9 1013.4 3.8
25/04:27pm 18.4 15.0 12.6 69 3.4 SE 22 32 12 17 1018.8 1013.3 3.6
25/04:20pm 18.9 15.6 14.0 73 3.0 SE 24 30 13 16 1018.7 1013.1 0.8
25/04:00pm 23.9 19.9 11.9 47 7.1 ENE 24 32 13 17 1018.2 1012.6 0.0
25/03:30pm 24.9 22.6 11.8 44 7.8 ESE 15 24 8 13 1018.7 1013.1 0.0
25/03:00pm 25.4 23.6 10.8 40 8.6 NNE 11 20 6 11 1019.2 1013.6 0.0
25/02:30pm 25.2 22.8 11.4 42 8.2 ESE 15 24 8 13 1019.7 1014.2 0.0
25/02:00pm 25.0 23.7 12.6 46 7.5 E 11 17 6 9 1020.3 1014.7 0.0
25/01:30pm 24.6 22.6 11.5 44 7.8 ESE 13 22 7 12 1020.6 1015.1 0.0
25/01:00pm 24.1 23.0 11.8 46 7.3 SE 9 19 5 10 1020.8 1015.3 0.0
25/12:30pm 23.6 22.0 11.6 47 7.1 ENE 11 19 6 10 1020.9 1015.4 0.0
25/12:00pm 23.1 21.2 13.0 53 6.1 ESE 15 24 8 13 1021.4 1015.9 0.0
25/11:30am 22.4 20.2 12.1 52 6.1 E 15 20 8 11 1021.7 1016.2 0.0
25/11:00am 21.2 18.7 12.3 57 5.2 ESE 17 24 9 13 1021.9 1016.4 0.0
25/10:30am 21.3 18.8 13.5 61 4.7 ESE 19 26 10 14 1022.0 1016.5 0.0
25/10:00am 19.5 16.5 12.5 64 4.1 ESE 20 28 11 15 1021.9 1016.4 0.0
25/09:30am 18.9 15.4 13.5 71 3.2 ESE 24 32 13 17 1021.9 1016.4 0.0
25/09:00am 17.7 13.6 12.8 73 2.9 ESE 26 32 14 17 1021.8 1016.3 0.0
25/08:30am 16.7 12.8 13.2 80 2.1 ESE 26 33 14 18 1021.6 1016.1 0.0
25/08:00am 16.2 13.4 13.1 82 1.8 ESE 20 28 11 15 1021.5 1016.0 0.0
25/07:30am 15.2 12.6 13.1 87 1.2 ESE 19 24 10 13 1021.3 1015.7 0.0
25/07:00am 14.2 11.4 12.6 90 0.9 ESE 19 22 10 12 1021.0 1015.5 0.0
25/06:50am 14.2 11.4 12.6 90 0.9 ESE 19 24 10 13 1020.9 1015.4 0.0
25/06:37am 14.3 11.6 12.9 91 0.8 ESE 19 22 10 12 1020.8 1015.3 0.0
25/06:30am 14.0 11.2 12.6 91 0.8 ESE 19 24 10 13 1020.7 1015.2 0.0
25/06:00am 14.1 11.2 12.3 89 1.0 ESE 19 24 10 13 1020.5 1015.0 0.0
25/05:33am 14.4 11.4 12.4 88 1.1 ESE 20 26 11 14 1020.4 1014.8 0.0
25/05:30am 14.4 11.4 12.4 88 1.1 ESE 20 26 11 14 1020.4 1014.8 0.0

Other Formats:

Comma delimited format used in spreadsheet applications
http://www.bom.gov.au/fwo/IDN60801/IDN60801.94588.axf

JavaScript Object Notation format (JSON) in row-major order
http://www.bom.gov.au/fwo/IDN60801/IDN60801.94588.json